Mount Lucas, Texas
Current Conditions -  °F | °C
As of 4:35 AM on Saturday 22 Nov 2014 (Local Time) from KBEA Reporting Station
Overcast Overcast  
Wind Chill: 70°   Ceiling: 1900
Heat Index: 70°   Visibility: 10mi
Dew Point: 68°   Wind: 10mph
Humidity: 95%   Direction: 130°SE
Pressure: 29.98"   Gusts: NA
Location:  28.2266°N, 97.9616°W
Report Text: KBEA 221035Z AUTO 13009KT 10SM SCT012 BKN019 OVC038 21/20 A2998 RMK AO2 LTG DSNT N T02100202
Loading
Personal Weather Stations






























Interactive Weather Map New forecast layout! Learn more

10-Day Weather Forecast

Advertisements
Track Severe Weather on mobile